createdAt,value
2019-02-24T00:01:28.830Z,3.60
2019-02-24T00:03:57.228Z,3.60
2019-02-24T00:06:25.617Z,3.60
2019-02-24T00:08:54.374Z,3.60
2019-02-24T00:11:22.698Z,3.60
2019-02-24T00:13:51.262Z,3.60
2019-02-24T00:16:19.672Z,3.60
2019-02-24T00:18:47.966Z,3.60
2019-02-24T00:21:16.288Z,3.60
2019-02-24T00:23:44.724Z,3.60
2019-02-24T00:26:13.037Z,3.60
2019-02-24T00:28:41.498Z,3.60
2019-02-24T00:31:10.223Z,3.60
2019-02-24T00:33:38.590Z,3.60
2019-02-24T00:36:06.981Z,3.60
2019-02-24T00:38:35.407Z,3.60
2019-02-24T00:41:03.737Z,3.60
2019-02-24T00:43:32.237Z,3.60
2019-02-24T00:46:00.694Z,3.60
2019-02-24T00:48:29.094Z,3.60
2019-02-24T00:50:57.441Z,3.60
2019-02-24T00:53:25.850Z,3.60
2019-02-24T00:55:54.302Z,3.60
2019-02-24T00:58:22.667Z,3.60
2019-02-24T01:00:51.089Z,3.60
2019-02-24T01:03:19.442Z,3.60
2019-02-24T01:05:47.788Z,3.60
2019-02-24T01:08:16.679Z,3.60
2019-02-24T01:10:45.034Z,3.60
2019-02-24T01:13:13.340Z,3.60
2019-02-24T01:15:41.799Z,3.70
2019-02-24T01:18:10.103Z,3.70
2019-02-24T01:20:38.416Z,3.70
2019-02-24T01:23:07.013Z,3.60
2019-02-24T01:25:35.374Z,3.60
2019-02-24T01:28:03.715Z,3.60
2019-02-24T01:30:32.380Z,3.60
2019-02-24T01:33:00.779Z,3.60
2019-02-24T01:35:29.083Z,3.60
2019-02-24T01:37:57.810Z,3.60
2019-02-24T01:40:26.127Z,3.60
2019-02-24T01:42:54.434Z,3.50
2019-02-24T01:45:23.052Z,3.50
2019-02-24T01:47:51.403Z,3.50
2019-02-24T01:50:19.706Z,3.50
2019-02-24T01:52:48.221Z,3.50
2019-02-24T01:55:16.627Z,3.50
2019-02-24T01:57:44.916Z,3.50
2019-02-24T02:00:13.380Z,3.60
2019-02-24T02:02:41.831Z,3.50
2019-02-24T02:05:10.146Z,3.50
2019-02-24T02:07:38.969Z,3.60
2019-02-24T02:10:07.339Z,3.60
2019-02-24T02:12:35.773Z,3.60
2019-02-24T02:15:04.277Z,3.60
2019-02-24T02:17:32.645Z,3.50
2019-02-24T02:20:01.017Z,3.50
2019-02-24T02:22:29.621Z,3.50
2019-02-24T02:24:57.954Z,3.50
2019-02-24T02:27:26.280Z,3.50
2019-02-24T02:29:54.792Z,3.60
2019-02-24T02:32:23.112Z,3.60
2019-02-24T02:34:51.418Z,3.60
2019-02-24T02:37:20.244Z,3.60
2019-02-24T02:39:48.652Z,3.60
2019-02-24T02:42:17.040Z,3.60
2019-02-24T02:44:46.012Z,3.50
2019-02-24T02:47:14.316Z,3.50
2019-02-24T02:49:42.726Z,3.60
2019-02-24T02:52:11.436Z,3.60
2019-02-24T02:54:39.788Z,3.60
2019-02-24T02:57:08.181Z,3.60
2019-02-24T02:59:36.701Z,3.60
2019-02-24T03:02:05.016Z,3.60
2019-02-24T03:04:33.397Z,3.60
2019-02-24T03:07:06.082Z,3.60
2019-02-24T03:09:34.454Z,3.60
2019-02-24T03:12:02.765Z,3.60
2019-02-24T03:14:31.296Z,3.60
2019-02-24T03:16:59.666Z,3.70
2019-02-24T03:19:27.987Z,3.70
2019-02-24T03:21:56.734Z,3.70
2019-02-24T03:24:25.105Z,3.70
2019-02-24T03:26:53.520Z,3.70
2019-02-24T03:29:22.326Z,3.70
2019-02-24T03:31:50.699Z,3.70
2019-02-24T03:34:18.981Z,3.70
2019-02-24T03:36:47.608Z,3.70
2019-02-24T03:39:15.936Z,3.70
2019-02-24T03:41:44.312Z,3.70
2019-02-24T03:44:13.196Z,3.80
2019-02-24T03:46:41.575Z,3.70
2019-02-24T03:49:09.916Z,3.70
2019-02-24T03:51:38.510Z,3.70
2019-02-24T03:54:06.833Z,3.80
2019-02-24T03:56:35.228Z,3.80
2019-02-24T03:59:14.450Z,3.80
2019-02-24T04:01:32.576Z,3.80
2019-02-24T04:04:00.984Z,3.80
2019-02-24T04:06:29.826Z,3.90
2019-02-24T04:08:58.157Z,3.80
2019-02-24T04:11:26.536Z,3.90
2019-02-24T04:13:55.123Z,3.90
2019-02-24T04:16:23.468Z,3.90
2019-02-24T04:18:51.845Z,3.90
2019-02-24T04:21:20.396Z,3.90
2019-02-24T04:23:48.724Z,3.90
2019-02-24T04:26:17.018Z,3.90
2019-02-24T04:28:45.528Z,3.90
2019-02-24T04:31:13.860Z,3.90
2019-02-24T04:33:42.274Z,4.00
2019-02-24T04:36:10.753Z,4.00
2019-02-24T04:38:39.288Z,4.00
2019-02-24T04:41:07.601Z,4.00
2019-02-24T04:43:36.105Z,3.90
2019-02-24T04:46:04.426Z,3.90
2019-02-24T04:48:32.807Z,3.90
2019-02-24T04:51:01.531Z,3.90
2019-02-24T04:53:29.839Z,3.90
2019-02-24T04:55:58.114Z,4.00
2019-02-24T04:58:26.506Z,4.00
2019-02-24T05:00:54.812Z,4.00
2019-02-24T05:03:23.209Z,4.00
2019-02-24T05:05:52.114Z,4.00
2019-02-24T05:08:20.405Z,4.00
2019-02-24T05:10:48.787Z,4.10
2019-02-24T05:13:17.557Z,4.00
2019-02-24T05:15:45.854Z,4.10
2019-02-24T05:18:14.311Z,4.10
2019-02-24T05:20:43.017Z,4.10
2019-02-24T05:23:11.383Z,4.10
2019-02-24T05:25:39.730Z,4.10
2019-02-24T05:28:08.114Z,4.10
2019-02-24T05:30:36.504Z,4.10
2019-02-24T05:33:04.859Z,4.10
2019-02-24T05:35:33.443Z,4.10
2019-02-24T05:38:01.760Z,4.10
2019-02-24T05:40:30.051Z,4.10
2019-02-24T05:42:58.537Z,4.20
2019-02-24T05:45:26.870Z,4.20
2019-02-24T05:47:55.197Z,4.30
2019-02-24T05:50:24.141Z,4.20
2019-02-24T05:52:52.466Z,4.20
2019-02-24T05:55:20.821Z,4.20
2019-02-24T05:57:49.578Z,4.20
2019-02-24T06:00:17.979Z,4.20
2019-02-24T06:02:46.393Z,4.20
2019-02-24T06:05:14.808Z,4.20
2019-02-24T06:07:43.137Z,4.30
2019-02-24T06:10:11.454Z,4.30
2019-02-24T06:12:39.854Z,4.30
2019-02-24T06:15:08.289Z,4.30
2019-02-24T06:17:36.652Z,4.30
2019-02-24T06:20:05.158Z,4.30
2019-02-24T06:22:33.537Z,4.20
2019-02-24T06:25:01.877Z,4.20
2019-02-24T06:27:30.593Z,4.30
2019-02-24T06:30:05.026Z,4.30
2019-02-24T06:32:27.333Z,4.20
2019-02-24T06:34:56.135Z,4.30
2019-02-24T06:37:24.493Z,4.30
2019-02-24T06:39:52.866Z,4.30
2019-02-24T06:42:21.609Z,4.20
2019-02-24T06:44:49.969Z,4.20
2019-02-24T06:47:18.337Z,4.20
2019-02-24T06:49:46.898Z,4.30
2019-02-24T06:52:15.199Z,4.30
2019-02-24T06:54:43.487Z,4.30
2019-02-24T06:57:11.995Z,4.40
2019-02-24T06:59:40.518Z,4.40
2019-02-24T07:02:08.880Z,4.40
2019-02-24T07:04:37.618Z,4.50
2019-02-24T07:07:05.915Z,4.50
2019-02-24T07:09:34.231Z,4.50
2019-02-24T07:12:02.822Z,4.50
2019-02-24T07:14:31.143Z,4.50
2019-02-24T07:16:59.425Z,4.60
2019-02-24T07:19:28.042Z,4.70
2019-02-24T07:21:56.372Z,4.70
2019-02-24T07:24:24.747Z,4.60
2019-02-24T07:26:53.155Z,4.60
2019-02-24T07:29:21.468Z,4.70
2019-02-24T07:31:49.805Z,4.70
2019-02-24T07:34:18.458Z,4.70
2019-02-24T07:36:46.744Z,4.70
2019-02-24T07:39:15.141Z,4.70
2019-02-24T07:41:43.755Z,4.80
2019-02-24T07:44:12.112Z,4.90
2019-02-24T07:46:40.403Z,5.00
2019-02-24T07:49:08.836Z,5.00
2019-02-24T07:51:37.146Z,5.00
2019-02-24T07:54:05.462Z,5.10
2019-02-24T07:56:33.935Z,5.10
2019-02-24T07:59:02.310Z,5.20
2019-02-24T08:01:30.729Z,5.20
2019-02-24T08:03:59.236Z,5.30
2019-02-24T08:06:27.953Z,5.30
2019-02-24T08:08:56.274Z,5.40
2019-02-24T08:11:24.775Z,5.40
2019-02-24T08:13:53.394Z,5.40
2019-02-24T08:16:21.760Z,5.50
2019-02-24T08:18:51.988Z,5.60
2019-02-24T08:21:18.756Z,5.80
2019-02-24T08:23:47.119Z,5.80
2019-02-24T08:26:15.765Z,5.80
2019-02-24T08:28:44.311Z,5.80
2019-02-24T08:31:12.701Z,5.80
2019-02-24T08:33:41.125Z,5.70
2019-02-24T08:36:09.599Z,5.60
2019-02-24T08:38:37.953Z,5.70
2019-02-24T08:41:06.469Z,5.80
2019-02-24T08:43:34.800Z,5.90
2019-02-24T08:46:03.379Z,6.10
2019-02-24T08:48:32.241Z,6.30
2019-02-24T08:51:00.604Z,6.40
2019-02-24T08:53:29.004Z,6.60
2019-02-24T08:55:57.881Z,6.90
2019-02-24T08:58:26.302Z,7.10
2019-02-24T09:00:54.658Z,7.10
2019-02-24T09:03:23.168Z,7.20
2019-02-24T09:05:51.467Z,7.50
2019-02-24T09:08:19.893Z,7.60
2019-02-24T09:10:48.713Z,7.90
2019-02-24T09:13:16.996Z,7.90
2019-02-24T09:15:45.331Z,7.70
2019-02-24T09:18:14.003Z,7.70
2019-02-24T09:20:42.364Z,8.20
2019-02-24T09:23:10.804Z,8.30
2019-02-24T09:25:39.749Z,8.60
2019-02-24T09:28:08.123Z,8.50
2019-02-24T09:30:36.499Z,8.40
2019-02-24T09:33:05.013Z,8.30
2019-02-24T09:35:33.323Z,8.60
2019-02-24T09:38:01.754Z,9.00
2019-02-24T09:40:30.486Z,8.60
2019-02-24T09:42:58.854Z,8.10
2019-02-24T09:45:27.313Z,7.70
2019-02-24T09:47:55.957Z,7.30
2019-02-24T09:50:24.391Z,7.10
2019-02-24T09:52:52.768Z,7.00
2019-02-24T09:55:21.315Z,7.00
2019-02-24T09:57:49.628Z,7.10
2019-02-24T10:00:18.052Z,7.30
2019-02-24T10:02:46.476Z,7.40
2019-02-24T10:05:14.815Z,7.40
2019-02-24T10:07:43.112Z,7.50
2019-02-24T10:10:11.629Z,7.70
2019-02-24T10:12:40.522Z,7.50
2019-02-24T10:15:08.985Z,7.40
2019-02-24T10:17:37.692Z,7.70
2019-02-24T10:20:06.698Z,8.00
2019-02-24T10:22:35.055Z,8.40
2019-02-24T10:25:05.866Z,8.50
2019-02-24T10:27:32.258Z,8.40
2019-02-24T10:30:00.619Z,8.50
2019-02-24T10:32:29.156Z,8.40
2019-02-24T10:34:57.566Z,8.00
2019-02-24T10:37:26.010Z,7.70
2019-02-24T10:39:54.494Z,7.40
2019-02-24T10:42:22.873Z,7.10
2019-02-24T10:44:51.236Z,7.10
2019-02-24T10:47:19.703Z,7.90
2019-02-24T10:49:48.009Z,8.90
2019-02-24T10:52:16.395Z,9.50
2019-02-24T10:54:45.186Z,9.70
2019-02-24T10:57:13.713Z,9.60
2019-02-24T10:59:42.143Z,9.90
2019-02-24T11:02:10.469Z,9.50
2019-02-24T11:04:38.953Z,9.00
2019-02-24T11:07:07.531Z,8.80
2019-02-24T11:09:35.868Z,8.30
2019-02-24T11:12:04.589Z,8.00
2019-02-24T11:14:33.276Z,7.80
2019-02-24T11:17:01.610Z,7.60
2019-02-24T11:19:30.340Z,7.40
2019-02-24T11:21:59.012Z,7.50
2019-02-24T11:24:27.653Z,7.60
2019-02-24T11:26:56.395Z,7.60
2019-02-24T11:29:24.818Z,7.60
2019-02-24T11:31:53.128Z,7.50
2019-02-24T11:34:21.812Z,7.40
2019-02-24T11:36:50.139Z,7.30
2019-02-24T11:39:18.587Z,7.20
2019-02-24T11:41:47.262Z,7.10
2019-02-24T11:44:15.635Z,7.10
2019-02-24T11:46:44.020Z,7.10
2019-02-24T11:49:12.555Z,7.20
2019-02-24T11:51:40.869Z,7.20
2019-02-24T11:54:09.276Z,7.20
2019-02-24T11:56:37.775Z,7.10
2019-02-24T11:59:06.163Z,7.10
2019-02-24T12:01:34.518Z,7.10
2019-02-24T12:04:02.975Z,7.10
2019-02-24T12:06:31.295Z,7.10
2019-02-24T12:09:05.255Z,7.30
2019-02-24T12:11:28.418Z,7.30
2019-02-24T12:13:56.772Z,7.40
2019-02-24T12:16:25.087Z,7.40
2019-02-24T12:18:53.856Z,7.40
2019-02-24T12:21:22.219Z,7.40
2019-02-24T12:23:50.580Z,7.30
2019-02-24T12:26:19.066Z,7.30
2019-02-24T12:28:47.421Z,7.30
2019-02-24T12:31:15.817Z,7.30
2019-02-24T12:33:44.587Z,7.40
2019-02-24T12:36:12.954Z,7.40
2019-02-24T12:38:41.308Z,7.40
2019-02-24T12:41:10.034Z,7.50
2019-02-24T12:43:38.530Z,7.50
2019-02-24T12:46:06.879Z,7.50
2019-02-24T12:48:35.644Z,7.50
2019-02-24T12:51:03.988Z,7.50
2019-02-24T12:53:32.344Z,7.50
2019-02-24T12:56:00.798Z,7.60
2019-02-24T12:58:29.145Z,7.60
2019-02-24T13:00:57.528Z,7.60
2019-02-24T13:03:25.955Z,7.70
2019-02-24T13:05:54.248Z,7.60
2019-02-24T13:08:22.670Z,7.70
2019-02-24T13:10:51.126Z,7.70
2019-02-24T13:13:19.680Z,7.70
2019-02-24T13:15:47.991Z,7.70
2019-02-24T13:18:16.637Z,7.70
2019-02-24T13:20:44.954Z,7.80
2019-02-24T13:23:13.518Z,7.80
2019-02-24T13:25:42.071Z,7.80
2019-02-24T13:28:10.394Z,7.90
2019-02-24T13:30:38.684Z,7.90
2019-02-24T13:33:07.623Z,7.90
2019-02-24T13:35:36.021Z,7.90
2019-02-24T13:38:04.362Z,8.00
2019-02-24T13:40:32.856Z,8.00
2019-02-24T13:43:01.141Z,7.90
2019-02-24T13:45:29.439Z,7.90
2019-02-24T13:47:57.860Z,7.90
2019-02-24T13:50:26.179Z,7.90
2019-02-24T13:52:54.497Z,8.00
2019-02-24T13:55:23.358Z,8.00
2019-02-24T13:57:51.991Z,8.00
2019-02-24T14:00:20.356Z,8.10
2019-02-24T14:02:48.952Z,8.10
2019-02-24T14:05:17.330Z,8.10
2019-02-24T14:07:45.670Z,8.10
2019-02-24T14:10:14.397Z,8.10
2019-02-24T14:12:42.906Z,8.10
2019-02-24T14:15:11.346Z,8.10
2019-02-24T14:17:39.802Z,8.10
2019-02-24T14:20:09.331Z,8.00
2019-02-24T14:22:37.693Z,8.00
2019-02-24T14:25:06.807Z,8.00
2019-02-24T14:27:35.333Z,8.10
2019-02-24T14:30:04.304Z,8.10
2019-02-24T14:32:33.289Z,8.10
2019-02-24T14:35:01.339Z,8.10
2019-02-24T14:37:29.762Z,8.00
2019-02-24T14:39:58.210Z,8.00
2019-02-24T14:42:26.574Z,8.00
2019-02-24T14:44:54.961Z,7.90
2019-02-24T14:47:23.383Z,7.90
2019-02-24T14:49:51.731Z,7.90
2019-02-24T14:52:20.070Z,7.90
2019-02-24T14:54:48.577Z,7.80
2019-02-24T14:57:17.035Z,7.70
2019-02-24T14:59:45.412Z,7.70
2019-02-24T15:02:14.044Z,7.60
2019-02-24T15:04:42.374Z,7.60
2019-02-24T15:07:10.685Z,7.50
2019-02-24T15:09:39.185Z,7.50
2019-02-24T15:12:07.526Z,7.40
2019-02-24T15:14:35.901Z,7.40
2019-02-24T15:17:04.588Z,7.30
2019-02-24T15:19:33.012Z,7.30
2019-02-24T15:22:01.364Z,7.20
2019-02-24T15:24:30.034Z,7.10
2019-02-24T15:26:58.404Z,7.10
2019-02-24T15:29:26.915Z,7.00
2019-02-24T15:31:55.329Z,7.00
2019-02-24T15:34:23.977Z,6.90
2019-02-24T15:36:52.291Z,6.90
2019-02-24T15:39:20.889Z,6.80
2019-02-24T15:41:49.228Z,6.70
2019-02-24T15:44:17.702Z,6.70
2019-02-24T15:46:46.344Z,6.60
2019-02-24T15:49:14.670Z,6.70
2019-02-24T15:51:43.034Z,6.60
2019-02-24T15:54:11.535Z,6.60
2019-02-24T15:56:39.883Z,6.60
2019-02-24T15:59:08.219Z,6.50
2019-02-24T16:01:37.993Z,6.50
2019-02-24T16:04:06.366Z,6.40
2019-02-24T16:06:37.244Z,6.40
2019-02-24T16:09:03.328Z,6.40
2019-02-24T16:11:31.629Z,6.30
2019-02-24T16:14:00.088Z,6.30
2019-02-24T16:16:28.530Z,6.20
2019-02-24T16:18:56.895Z,6.20
2019-02-24T16:21:25.237Z,6.10
2019-02-24T16:23:53.847Z,6.10
2019-02-24T16:26:22.160Z,6.00
2019-02-24T16:28:50.729Z,6.00
2019-02-24T16:31:19.174Z,6.00
2019-02-24T16:33:47.531Z,5.90
2019-02-24T16:36:15.995Z,5.90
2019-02-24T16:38:44.624Z,5.90
2019-02-24T16:41:13.250Z,5.90
2019-02-24T16:43:41.656Z,5.90
2019-02-24T16:46:10.137Z,5.90
2019-02-24T16:48:38.446Z,5.90
2019-02-24T16:51:06.869Z,5.90
2019-02-24T16:53:35.266Z,5.90
2019-02-24T16:56:03.783Z,5.80
2019-02-24T16:58:32.243Z,5.90
2019-02-24T17:01:01.040Z,5.90
2019-02-24T17:03:29.411Z,5.90
2019-02-24T17:05:57.778Z,5.90
2019-02-24T17:08:26.595Z,5.90
2019-02-24T17:10:54.988Z,5.90
2019-02-24T17:13:23.333Z,5.90
2019-02-24T17:15:52.070Z,5.90
2019-02-24T17:18:20.413Z,5.90
2019-02-24T17:20:48.707Z,5.80
2019-02-24T17:23:17.200Z,5.80
2019-02-24T17:25:45.591Z,5.80
2019-02-24T17:28:13.979Z,5.80
2019-02-24T17:30:42.500Z,5.80
2019-02-24T17:33:10.900Z,5.80
2019-02-24T17:35:39.221Z,5.80
2019-02-24T17:38:08.098Z,5.80
2019-02-24T17:40:36.437Z,5.80
2019-02-24T17:43:04.787Z,5.80
2019-02-24T17:45:33.141Z,5.80
2019-02-24T17:48:01.500Z,5.80
2019-02-24T17:50:29.967Z,5.80
2019-02-24T17:52:58.521Z,5.70
2019-02-24T17:55:26.927Z,5.70
2019-02-24T17:57:55.314Z,5.70
2019-02-24T18:00:27.350Z,5.60
2019-02-24T18:02:55.737Z,5.60
2019-02-24T18:05:24.058Z,5.60
2019-02-24T18:07:52.601Z,5.50
2019-02-24T18:10:21.021Z,5.50
2019-02-24T18:12:49.400Z,5.50
2019-02-24T18:15:18.302Z,5.40
2019-02-24T18:17:46.674Z,5.40
2019-02-24T18:20:15.049Z,5.40
2019-02-24T18:22:43.535Z,5.30
2019-02-24T18:25:12.115Z,5.30
2019-02-24T18:27:40.512Z,5.20
2019-02-24T18:30:12.306Z,5.30
2019-02-24T18:32:41.262Z,5.20
2019-02-24T18:35:09.654Z,5.10
2019-02-24T18:37:38.143Z,5.10
2019-02-24T18:40:07.169Z,5.00
2019-02-24T18:42:35.467Z,5.00
2019-02-24T18:45:04.211Z,4.90
2019-02-24T18:47:32.710Z,4.90
2019-02-24T18:50:01.169Z,4.80
2019-02-24T18:52:29.852Z,4.80
2019-02-24T18:54:58.234Z,4.70
2019-02-24T18:57:26.584Z,4.70
2019-02-24T18:59:55.352Z,4.70
2019-02-24T19:02:24.280Z,4.60
2019-02-24T19:04:52.777Z,4.50
2019-02-24T19:07:21.346Z,4.60
2019-02-24T19:09:49.778Z,4.60
2019-02-24T19:12:18.411Z,4.60
2019-02-24T19:14:47.103Z,4.70
2019-02-24T19:17:15.470Z,4.60
2019-02-24T19:19:43.877Z,4.60
2019-02-24T19:22:12.691Z,4.60
2019-02-24T19:24:41.226Z,4.60
2019-02-24T19:27:09.777Z,4.50
2019-02-24T19:29:38.191Z,4.50
2019-02-24T19:32:06.488Z,4.40
2019-02-24T19:34:34.846Z,4.40
2019-02-24T19:37:03.288Z,4.40
2019-02-24T19:39:31.704Z,4.40
2019-02-24T19:42:00.182Z,4.40
2019-02-24T19:44:28.603Z,4.50
2019-02-24T19:46:57.204Z,4.50
2019-02-24T19:49:25.552Z,4.60
2019-02-24T19:51:54.149Z,4.50
2019-02-24T19:54:22.444Z,4.50
2019-02-24T19:56:50.760Z,4.40
2019-02-24T19:59:19.427Z,4.40
2019-02-24T20:01:47.751Z,4.40
2019-02-24T20:04:16.443Z,4.40
2019-02-24T20:06:44.744Z,4.40
2019-02-24T20:09:13.151Z,4.30
2019-02-24T20:11:41.467Z,4.20
2019-02-24T20:14:09.998Z,4.10
2019-02-24T20:16:38.351Z,4.10
2019-02-24T20:19:06.684Z,4.00
2019-02-24T20:21:35.081Z,4.00
2019-02-24T20:24:03.486Z,4.00
2019-02-24T20:26:31.817Z,4.00
2019-02-24T20:29:00.265Z,4.10
2019-02-24T20:31:28.755Z,4.20
2019-02-24T20:33:57.051Z,4.30
2019-02-24T20:36:26.011Z,4.30
2019-02-24T20:38:54.434Z,4.20
2019-02-24T20:41:23.012Z,4.20
2019-02-24T20:43:51.486Z,4.20
2019-02-24T20:46:19.915Z,4.10
2019-02-24T20:48:48.264Z,4.10
2019-02-24T20:51:17.041Z,4.00
2019-02-24T20:53:45.478Z,4.00
2019-02-24T20:56:13.909Z,3.90
2019-02-24T20:58:42.800Z,3.80
2019-02-24T21:01:11.794Z,3.80
2019-02-24T21:03:40.170Z,3.60
2019-02-24T21:06:08.606Z,3.50
2019-02-24T21:08:37.032Z,3.50
2019-02-24T21:11:05.406Z,3.40
2019-02-24T21:13:33.846Z,3.40
2019-02-24T21:16:02.437Z,3.40
2019-02-24T21:18:30.757Z,3.50
2019-02-24T21:20:59.265Z,3.60
2019-02-24T21:23:27.628Z,3.70
2019-02-24T21:25:56.221Z,3.80
2019-02-24T21:28:24.906Z,3.90
2019-02-24T21:30:53.391Z,4.00
2019-02-24T21:33:21.733Z,4.10
2019-02-24T21:35:50.248Z,4.10
2019-02-24T21:38:18.575Z,4.00
2019-02-24T21:40:47.412Z,4.00
2019-02-24T21:43:16.079Z,4.00
2019-02-24T21:45:44.398Z,4.00
2019-02-24T21:48:12.761Z,4.00
2019-02-24T21:50:41.197Z,4.00
2019-02-24T21:53:09.538Z,3.90
2019-02-24T21:55:37.922Z,3.90
2019-02-24T21:58:06.941Z,4.00
2019-02-24T22:00:35.402Z,4.00
2019-02-24T22:03:03.883Z,4.20
2019-02-24T22:05:32.686Z,4.10
2019-02-24T22:08:01.014Z,4.20
2019-02-24T22:10:29.404Z,4.10
2019-02-24T22:12:59.396Z,4.10
2019-02-24T22:15:26.375Z,4.00
2019-02-24T22:17:54.746Z,4.00
2019-02-24T22:20:23.346Z,4.00
2019-02-24T22:22:51.716Z,4.10
2019-02-24T22:25:20.075Z,4.10
2019-02-24T22:27:48.600Z,4.20
2019-02-24T22:30:17.108Z,4.30
2019-02-24T22:32:45.550Z,4.40
2019-02-24T22:35:14.012Z,4.30
2019-02-24T22:37:42.662Z,4.40
2019-02-24T22:40:11.466Z,4.40
2019-02-24T22:42:40.203Z,4.40
2019-02-24T22:45:10.690Z,4.50
2019-02-24T22:47:39.055Z,4.60
2019-02-24T22:50:08.272Z,4.70
2019-02-24T22:52:36.663Z,4.70
2019-02-24T22:55:05.572Z,4.70
2019-02-24T22:57:34.107Z,4.70
2019-02-24T23:00:02.521Z,4.70
2019-02-24T23:02:31.039Z,4.70
2019-02-24T23:05:00.034Z,4.70
2019-02-24T23:07:28.376Z,4.70
2019-02-24T23:09:56.715Z,4.70
2019-02-24T23:12:25.308Z,4.70
2019-02-24T23:14:53.726Z,4.60
2019-02-24T23:17:22.021Z,4.70
2019-02-24T23:19:50.786Z,4.70
2019-02-24T23:22:19.087Z,4.70
2019-02-24T23:24:47.422Z,4.70
2019-02-24T23:27:16.046Z,4.60
2019-02-24T23:29:44.420Z,4.50
2019-02-24T23:32:12.843Z,4.50
2019-02-24T23:34:41.321Z,4.50
2019-02-24T23:37:09.687Z,4.40
2019-02-24T23:39:38.211Z,4.40
2019-02-24T23:42:06.638Z,4.40
2019-02-24T23:44:34.996Z,4.40
2019-02-24T23:47:03.343Z,4.40
2019-02-24T23:49:32.221Z,4.40
2019-02-24T23:52:00.760Z,4.30
2019-02-24T23:54:29.062Z,4.30
2019-02-24T23:56:57.974Z,4.30
2019-02-24T23:59:26.457Z,4.30
